createdAt,value
2022-12-27T00:01:15.252Z,23.93
2022-12-27T00:03:44.903Z,23.93
2022-12-27T00:06:20.518Z,23.73
2022-12-27T00:08:48.701Z,24.25
2022-12-27T00:11:17.943Z,23.17
2022-12-27T00:13:46.374Z,23.53
2022-12-27T00:16:16.245Z,23.75
2022-12-27T00:18:46.827Z,23.59
2022-12-27T00:21:14.502Z,23.97
2022-12-27T00:23:43.575Z,23.89
2022-12-27T00:26:12.896Z,23.82
2022-12-27T00:28:41.401Z,23.37
2022-12-27T00:31:11.400Z,23.72
2022-12-27T00:33:40.091Z,23.60
2022-12-27T00:36:09.612Z,24.04
2022-12-27T00:38:37.492Z,23.66
2022-12-27T00:41:06.079Z,24.21
2022-12-27T00:43:34.994Z,23.58
2022-12-27T00:46:02.979Z,23.77
2022-12-27T00:48:30.386Z,24.14
2022-12-27T00:50:59.235Z,23.90
2022-12-27T00:53:27.764Z,23.62
2022-12-27T00:55:55.352Z,23.38
2022-12-27T00:58:22.925Z,23.67
2022-12-27T01:00:50.832Z,23.71
2022-12-27T01:03:18.980Z,23.63
2022-12-27T01:05:46.310Z,24.23
2022-12-27T01:08:13.563Z,23.73
2022-12-27T01:10:41.429Z,23.91
2022-12-27T01:13:08.888Z,23.83
2022-12-27T01:15:36.129Z,24.62
2022-12-27T01:18:03.410Z,24.04
2022-12-27T01:20:30.724Z,23.92
2022-12-27T01:22:58.437Z,23.79
2022-12-27T01:25:25.695Z,23.73
2022-12-27T01:27:53.089Z,23.79
2022-12-27T01:30:20.288Z,23.39
2022-12-27T01:32:47.506Z,23.46
2022-12-27T01:35:15.171Z,23.53
2022-12-27T01:37:42.501Z,23.82
2022-12-27T01:40:10.240Z,23.85
2022-12-27T01:42:52.673Z,24.20
2022-12-27T01:45:19.956Z,23.69
2022-12-27T01:48:05.758Z,23.57
2022-12-27T01:50:38.554Z,23.75
2022-12-27T01:53:13.040Z,23.54
2022-12-27T01:55:51.946Z,23.45
2022-12-27T01:58:24.078Z,23.78
2022-12-27T02:00:52.020Z,24.14
2022-12-27T02:03:22.291Z,23.80
2022-12-27T02:05:50.905Z,23.47
2022-12-27T02:08:27.006Z,23.59
2022-12-27T02:10:55.384Z,23.99
2022-12-27T02:13:23.373Z,24.26
2022-12-27T02:15:50.930Z,23.81
2022-12-27T02:18:18.259Z,23.81
2022-12-27T02:20:48.381Z,23.98
2022-12-27T02:23:48.762Z,23.86
2022-12-27T02:26:24.816Z,24.00
2022-12-27T02:28:52.010Z,23.44
2022-12-27T02:31:26.252Z,23.80
2022-12-27T02:33:54.563Z,23.78
2022-12-27T02:36:29.882Z,23.72
2022-12-27T02:38:59.240Z,24.26
2022-12-27T02:41:45.601Z,23.89
2022-12-27T02:44:31.874Z,23.80
2022-12-27T02:47:17.559Z,23.60
2022-12-27T02:50:04.058Z,23.91
2022-12-27T02:53:05.342Z,23.97
2022-12-27T02:55:32.775Z,23.71
2022-12-27T02:58:06.171Z,23.34
2022-12-27T03:00:59.746Z,23.16
2022-12-27T03:03:45.758Z,23.94
2022-12-27T03:06:42.777Z,23.87
2022-12-27T03:09:38.847Z,24.49
2022-12-27T03:12:28.250Z,24.02
2022-12-27T03:15:18.130Z,23.77
2022-12-27T03:17:49.593Z,23.82
2022-12-27T03:20:38.075Z,23.81
2022-12-27T03:23:24.209Z,23.57
2022-12-27T03:25:52.855Z,23.72
2022-12-27T03:28:40.433Z,23.76
2022-12-27T03:31:31.220Z,23.56
2022-12-27T03:34:22.449Z,23.26
2022-12-27T03:37:09.430Z,23.53
2022-12-27T03:39:40.459Z,23.33
2022-12-27T03:42:30.001Z,23.09
2022-12-27T03:44:57.363Z,23.70
2022-12-27T03:47:24.561Z,23.93
2022-12-27T03:50:03.259Z,23.57
2022-12-27T03:52:38.210Z,23.18
2022-12-27T03:55:06.161Z,23.28
2022-12-27T03:57:33.450Z,23.24
2022-12-27T04:00:00.707Z,23.49
2022-12-27T04:02:28.093Z,23.71
2022-12-27T04:04:55.526Z,23.82
2022-12-27T04:07:22.685Z,23.41
2022-12-27T04:10:08.624Z,23.63
2022-12-27T04:12:54.616Z,23.50
2022-12-27T04:15:40.306Z,23.13
2022-12-27T04:18:26.385Z,23.14
2022-12-27T04:21:12.137Z,23.83
2022-12-27T04:23:58.519Z,23.45
2022-12-27T04:26:44.166Z,23.77
2022-12-27T04:29:30.048Z,23.51
2022-12-27T04:32:15.879Z,23.47
2022-12-27T04:34:46.088Z,23.47
2022-12-27T04:37:17.712Z,23.58
2022-12-27T04:40:04.199Z,23.94
2022-12-27T04:42:49.884Z,23.47
2022-12-27T04:45:35.543Z,23.17
2022-12-27T04:48:21.278Z,23.83
2022-12-27T04:51:07.114Z,23.60
2022-12-27T04:53:52.768Z,24.24
2022-12-27T04:56:20.194Z,23.98
2022-12-27T04:59:06.133Z,23.44
2022-12-27T05:01:52.154Z,23.81
2022-12-27T05:04:19.589Z,23.08
2022-12-27T05:06:47.045Z,23.54
2022-12-27T05:09:33.056Z,23.55
2022-12-27T05:12:19.129Z,23.66
2022-12-27T05:14:47.673Z,23.56
2022-12-27T05:17:14.869Z,22.90
2022-12-27T05:19:42.157Z,23.39
2022-12-27T05:22:28.129Z,23.63
2022-12-27T05:25:14.034Z,23.23
2022-12-27T05:27:41.334Z,23.45
2022-12-27T05:30:09.043Z,23.48
2022-12-27T05:32:36.363Z,23.54
2022-12-27T05:35:03.880Z,23.31
2022-12-27T05:37:31.245Z,23.31
2022-12-27T05:39:58.508Z,23.76
2022-12-27T05:42:25.858Z,23.46
2022-12-27T05:44:53.129Z,23.96
2022-12-27T05:47:20.375Z,23.10
2022-12-27T05:49:47.682Z,23.14
2022-12-27T05:52:15.052Z,23.58
2022-12-27T05:54:42.249Z,23.44
2022-12-27T05:57:09.569Z,23.93
2022-12-27T05:59:36.757Z,23.53
2022-12-27T06:02:04.244Z,23.28
2022-12-27T06:04:31.890Z,23.38
2022-12-27T06:06:59.355Z,23.10
2022-12-27T06:09:29.039Z,23.58
2022-12-27T06:11:56.455Z,23.64
2022-12-27T06:14:23.671Z,23.46
2022-12-27T06:16:51.069Z,23.05
2022-12-27T06:19:18.573Z,23.42
2022-12-27T06:21:45.933Z,23.67
2022-12-27T06:24:13.334Z,23.66
2022-12-27T06:26:42.335Z,23.35
2022-12-27T06:29:11.389Z,23.37
2022-12-27T06:31:39.116Z,22.96
2022-12-27T06:34:06.540Z,23.35
2022-12-27T06:36:33.783Z,23.55
2022-12-27T06:39:01.101Z,22.85
2022-12-27T06:41:28.499Z,23.49
2022-12-27T06:43:57.445Z,23.35
2022-12-27T06:46:24.932Z,22.79
2022-12-27T06:48:52.426Z,23.38
2022-12-27T06:51:20.722Z,23.47
2022-12-27T06:53:48.419Z,23.73
2022-12-27T06:56:17.571Z,23.79
2022-12-27T06:58:45.394Z,23.32
2022-12-27T07:01:12.794Z,23.86
2022-12-27T07:03:40.365Z,23.50
2022-12-27T07:06:08.404Z,23.55
2022-12-27T07:08:36.146Z,23.21
2022-12-27T07:11:04.621Z,23.22
2022-12-27T07:13:35.931Z,23.09
2022-12-27T07:16:10.780Z,22.69
2022-12-27T07:18:38.197Z,23.25
2022-12-27T07:21:06.434Z,23.29
2022-12-27T07:23:34.067Z,23.05
2022-12-27T07:26:08.466Z,23.42
2022-12-27T07:28:36.341Z,22.82
2022-12-27T07:31:11.699Z,23.54
2022-12-27T07:33:39.112Z,22.69
2022-12-27T07:36:08.817Z,23.07
2022-12-27T07:38:36.075Z,22.78
2022-12-27T07:41:04.252Z,22.67
2022-12-27T07:43:33.322Z,22.46
2022-12-27T07:46:09.950Z,23.07
2022-12-27T07:48:37.551Z,22.51
2022-12-27T07:51:05.129Z,22.83
2022-12-27T07:53:32.545Z,22.81
2022-12-27T07:55:59.896Z,22.85
2022-12-27T07:58:27.155Z,23.06
2022-12-27T08:00:54.516Z,23.13
2022-12-27T08:03:21.911Z,22.35
2022-12-27T08:05:50.185Z,23.43
2022-12-27T08:08:20.247Z,23.04
2022-12-27T08:10:47.524Z,22.59
2022-12-27T08:13:14.938Z,22.73
2022-12-27T08:15:42.975Z,22.71
2022-12-27T08:18:10.326Z,22.79
2022-12-27T08:20:37.627Z,22.93
2022-12-27T08:23:04.884Z,22.48
2022-12-27T08:25:32.264Z,22.81
2022-12-27T08:28:06.618Z,23.25
2022-12-27T08:30:34.592Z,22.94
2022-12-27T08:33:02.720Z,22.70
2022-12-27T08:35:52.159Z,23.28
2022-12-27T08:38:17.829Z,23.00
2022-12-27T08:40:45.645Z,23.11
2022-12-27T08:43:13.239Z,22.75
2022-12-27T08:45:40.998Z,22.79
2022-12-27T08:48:08.936Z,23.40
2022-12-27T08:50:36.212Z,23.02
2022-12-27T08:53:04.495Z,22.74
2022-12-27T08:55:32.171Z,22.80
2022-12-27T08:58:00.337Z,22.31
2022-12-27T09:00:27.939Z,22.70
2022-12-27T09:02:55.420Z,23.76
2022-12-27T09:05:23.109Z,23.02
2022-12-27T09:07:50.608Z,22.97
2022-12-27T09:10:18.382Z,22.84
2022-12-27T09:12:48.288Z,22.89
2022-12-27T09:15:16.021Z,23.05
2022-12-27T09:17:43.303Z,22.83
2022-12-27T09:20:12.405Z,23.01
2022-12-27T09:22:39.730Z,23.66
2022-12-27T09:25:07.797Z,23.35
2022-12-27T09:27:36.049Z,22.75
2022-12-27T09:30:04.677Z,22.65
2022-12-27T09:32:31.986Z,22.95
2022-12-27T09:34:59.202Z,23.05
2022-12-27T09:37:27.719Z,23.26
2022-12-27T09:39:54.977Z,22.71
2022-12-27T09:45:26.212Z,22.74
2022-12-27T09:47:59.731Z,22.83
2022-12-27T09:50:48.826Z,22.95
2022-12-27T09:53:17.567Z,23.26
2022-12-27T09:55:55.890Z,22.66
2022-12-27T09:58:23.164Z,22.97
2022-12-27T10:00:50.888Z,22.93
2022-12-27T10:03:21.045Z,23.50
2022-12-27T10:05:56.095Z,23.13
2022-12-27T10:08:43.734Z,23.24
2022-12-27T10:11:36.289Z,22.67
2022-12-27T10:14:27.398Z,22.07
2022-12-27T10:17:00.070Z,22.88
2022-12-27T10:19:46.122Z,22.45
2022-12-27T10:22:22.784Z,22.64
2022-12-27T10:24:57.291Z,22.60
2022-12-27T10:27:26.863Z,22.31
2022-12-27T10:29:55.556Z,22.51
2022-12-27T10:32:23.282Z,22.51
2022-12-27T10:35:02.117Z,22.79
2022-12-27T10:37:30.375Z,22.70
2022-12-27T10:40:01.204Z,22.05
2022-12-27T10:42:38.508Z,22.33
2022-12-27T10:45:24.527Z,22.39
2022-12-27T10:47:52.606Z,22.11
2022-12-27T10:50:22.594Z,22.24
2022-12-27T10:52:55.705Z,22.85
2022-12-27T10:55:51.203Z,22.90
2022-12-27T10:58:20.472Z,22.64
2022-12-27T11:00:54.772Z,22.54
2022-12-27T11:03:22.255Z,22.57
2022-12-27T11:06:00.281Z,21.63
2022-12-27T11:08:28.160Z,22.62
2022-12-27T11:11:15.018Z,22.93
2022-12-27T11:13:42.651Z,21.94
2022-12-27T11:16:17.826Z,22.13
2022-12-27T11:18:46.900Z,22.48
2022-12-27T11:21:23.856Z,22.34
2022-12-27T11:24:02.517Z,22.87
2022-12-27T11:26:31.576Z,22.75
2022-12-27T11:29:01.223Z,22.59
2022-12-27T11:31:31.416Z,22.35
2022-12-27T11:34:00.466Z,22.51
2022-12-27T11:36:40.825Z,22.44
2022-12-27T11:39:08.524Z,22.52
2022-12-27T11:41:49.577Z,22.23
2022-12-27T11:44:27.050Z,22.66
2022-12-27T11:47:12.319Z,22.37
2022-12-27T11:50:02.669Z,22.64
2022-12-27T11:52:33.851Z,22.39
2022-12-27T11:55:20.045Z,22.46
2022-12-27T11:58:05.966Z,23.04
2022-12-27T12:00:38.178Z,22.77
2022-12-27T12:03:14.503Z,22.61
2022-12-27T12:05:48.625Z,22.27
2022-12-27T12:08:33.275Z,21.39
2022-12-27T12:11:26.439Z,22.10
2022-12-27T12:14:02.826Z,22.14
2022-12-27T12:17:06.114Z,22.13
2022-12-27T12:19:52.180Z,22.29
2022-12-27T12:22:25.342Z,22.72
2022-12-27T12:24:52.628Z,22.29
2022-12-27T12:27:38.810Z,22.53
2022-12-27T12:30:22.379Z,22.42
2022-12-27T12:32:59.571Z,22.37
2022-12-27T12:35:33.040Z,23.01
2022-12-27T12:38:09.378Z,22.32
2022-12-27T12:40:39.733Z,22.79
2022-12-27T12:43:25.716Z,22.63
2022-12-27T12:46:02.794Z,22.27
2022-12-27T12:48:30.493Z,22.59
2022-12-27T12:50:57.724Z,22.40
2022-12-27T12:53:34.082Z,22.40
2022-12-27T12:56:07.490Z,22.51
2022-12-27T12:58:46.291Z,22.46
2022-12-27T13:01:19.618Z,21.98
2022-12-27T13:04:01.746Z,22.68
2022-12-27T13:06:32.163Z,21.80
2022-12-27T13:09:02.777Z,22.42
2022-12-27T13:11:38.997Z,22.33
2022-12-27T13:14:17.884Z,22.56
2022-12-27T13:16:57.372Z,22.70
2022-12-27T13:19:27.742Z,22.44
2022-12-27T13:22:13.738Z,22.22
2022-12-27T13:24:44.160Z,22.42
2022-12-27T13:27:30.102Z,22.15
2022-12-27T13:30:13.281Z,22.39
2022-12-27T13:32:54.763Z,22.08
2022-12-27T13:35:22.489Z,22.10
2022-12-27T13:37:52.583Z,21.98
2022-12-27T13:40:23.352Z,21.97
2022-12-27T13:42:50.565Z,22.06
2022-12-27T13:45:25.904Z,22.53
2022-12-27T13:48:02.313Z,22.62
2022-12-27T13:50:48.168Z,22.13
2022-12-27T13:53:18.640Z,22.63
2022-12-27T13:56:20.363Z,22.61
2022-12-27T13:59:03.688Z,22.46
2022-12-27T14:01:31.100Z,22.84
2022-12-27T14:04:12.888Z,22.97
2022-12-27T14:07:06.196Z,22.48
2022-12-27T14:09:33.450Z,22.44
2022-12-27T14:12:09.611Z,22.85
2022-12-27T14:14:38.821Z,22.12
2022-12-27T14:17:11.027Z,22.40
2022-12-27T14:19:44.570Z,22.31
2022-12-27T14:22:26.351Z,22.61
2022-12-27T14:25:12.482Z,22.53
2022-12-27T14:28:11.930Z,22.51
2022-12-27T14:30:42.572Z,22.38
2022-12-27T14:33:15.714Z,22.39
2022-12-27T14:36:01.518Z,22.55
2022-12-27T14:38:31.564Z,22.50
2022-12-27T14:41:17.514Z,22.87
2022-12-27T14:44:03.407Z,22.86
2022-12-27T14:46:30.784Z,22.39
2022-12-27T14:49:16.704Z,22.48
2022-12-27T14:52:02.671Z,22.86
2022-12-27T14:54:42.327Z,22.79
2022-12-27T14:57:15.899Z,22.32
2022-12-27T14:59:50.086Z,22.50
2022-12-27T15:02:20.775Z,22.68
2022-12-27T15:05:14.448Z,22.18
2022-12-27T15:07:56.825Z,22.64
2022-12-27T15:10:42.693Z,22.93
2022-12-27T15:13:16.113Z,23.11
2022-12-27T15:15:49.355Z,22.49
2022-12-27T15:18:22.590Z,22.82
2022-12-27T15:21:00.292Z,23.17
2022-12-27T15:23:33.526Z,22.13
2022-12-27T15:26:15.108Z,23.14
2022-12-27T15:28:55.293Z,22.27
2022-12-27T15:31:42.718Z,22.31
2022-12-27T15:34:10.183Z,22.22
2022-12-27T15:36:39.399Z,22.70
2022-12-27T15:39:26.668Z,22.36
2022-12-27T15:41:53.925Z,22.93
2022-12-27T15:44:21.124Z,22.74
2022-12-27T15:46:54.582Z,22.71
2022-12-27T15:49:43.159Z,21.97
2022-12-27T15:52:33.710Z,22.33
2022-12-27T15:55:19.190Z,22.22
2022-12-27T15:58:13.258Z,21.77
2022-12-27T16:00:41.291Z,22.43
2022-12-27T16:03:27.308Z,22.44
2022-12-27T16:05:54.711Z,22.57
2022-12-27T16:08:27.722Z,22.91
2022-12-27T16:10:55.849Z,22.76
2022-12-27T16:13:34.455Z,22.28
2022-12-27T16:16:09.366Z,21.94
2022-12-27T16:19:03.359Z,21.98
2022-12-27T16:21:41.874Z,22.68
2022-12-27T16:24:15.822Z,22.10
2022-12-27T16:27:03.067Z,22.23
2022-12-27T16:29:35.630Z,22.42
2022-12-27T16:32:15.850Z,22.63
2022-12-27T16:34:45.181Z,22.52
2022-12-27T16:37:29.753Z,22.33
2022-12-27T16:39:57.269Z,22.40
2022-12-27T16:42:33.974Z,22.68
2022-12-27T16:45:03.141Z,22.69
2022-12-27T16:47:34.007Z,22.39
2022-12-27T16:50:07.098Z,22.09
2022-12-27T16:52:34.383Z,22.07
2022-12-27T16:55:20.492Z,22.23
2022-12-27T16:57:48.615Z,22.05
2022-12-27T17:00:42.385Z,22.12
2022-12-27T17:03:21.129Z,23.12
2022-12-27T17:06:21.765Z,21.24
2022-12-27T17:08:36.888Z,23.01
2022-12-27T17:11:16.380Z,22.29
2022-12-27T17:13:49.707Z,22.79
2022-12-27T17:16:37.542Z,22.71
2022-12-27T17:19:07.293Z,21.98
2022-12-27T17:21:38.417Z,22.73
2022-12-27T17:24:05.772Z,22.27
2022-12-27T17:26:51.192Z,22.72
2022-12-27T17:29:18.469Z,22.21
2022-12-27T17:31:50.044Z,22.34
2022-12-27T17:34:22.554Z,22.48
2022-12-27T17:36:49.810Z,22.79
2022-12-27T17:39:16.984Z,22.11
2022-12-27T17:42:11.870Z,22.07
2022-12-27T17:44:48.342Z,22.57
2022-12-27T17:47:16.055Z,22.17
2022-12-27T17:49:43.594Z,22.26
2022-12-27T17:52:34.576Z,22.42
2022-12-27T17:55:37.808Z,22.60
2022-12-27T17:58:06.978Z,22.54
2022-12-27T18:00:36.293Z,22.25
2022-12-27T18:03:07.744Z,21.92
2022-12-27T18:05:39.807Z,22.42
2022-12-27T18:08:25.528Z,22.71
2022-12-27T18:10:52.881Z,22.13
2022-12-27T18:13:20.883Z,22.03
2022-12-27T18:15:49.458Z,22.28
2022-12-27T18:18:19.056Z,22.52
2022-12-27T18:20:46.832Z,22.41
2022-12-27T18:23:16.146Z,21.91
2022-12-27T18:25:43.423Z,22.15
2022-12-27T18:28:13.349Z,22.09
2022-12-27T18:30:43.513Z,22.25
2022-12-27T18:33:15.327Z,22.39
2022-12-27T18:35:44.133Z,22.04
2022-12-27T18:38:16.352Z,22.33
2022-12-27T18:40:43.921Z,20.87
2022-12-27T18:43:17.636Z,21.84
2022-12-27T18:45:45.319Z,21.93
2022-12-27T18:48:12.681Z,22.08
2022-12-27T18:50:47.517Z,21.65
2022-12-27T18:53:23.689Z,21.99
2022-12-27T18:55:58.837Z,22.21
2022-12-27T18:58:26.727Z,22.67
2022-12-27T19:00:53.966Z,22.16
2022-12-27T19:03:21.465Z,22.15
2022-12-27T19:06:05.586Z,22.02
2022-12-27T19:08:37.598Z,22.46
2022-12-27T19:11:05.699Z,21.61
2022-12-27T19:13:53.667Z,22.22
2022-12-27T19:16:23.373Z,22.07
2022-12-27T19:18:52.387Z,22.23
2022-12-27T19:21:20.024Z,22.97
2022-12-27T19:23:49.290Z,22.84
2022-12-27T19:26:16.607Z,22.16
2022-12-27T19:28:45.150Z,22.59
2022-12-27T19:31:18.453Z,22.44
2022-12-27T19:33:53.723Z,22.36
2022-12-27T19:36:41.343Z,22.20
2022-12-27T19:39:16.779Z,21.82
2022-12-27T19:41:44.144Z,22.74
2022-12-27T19:44:11.748Z,22.32
2022-12-27T19:46:39.207Z,23.07
2022-12-27T19:51:56.098Z,22.31
2022-12-27T19:54:24.980Z,22.62
2022-12-27T19:56:53.056Z,22.47
2022-12-27T19:59:21.837Z,22.75
2022-12-27T20:01:49.417Z,22.79
2022-12-27T20:04:17.196Z,22.48
2022-12-27T20:06:45.763Z,22.65
2022-12-27T20:09:13.947Z,22.14
2022-12-27T20:11:41.561Z,22.13
2022-12-27T20:14:08.851Z,22.90
2022-12-27T20:16:36.379Z,22.97
2022-12-27T20:19:03.752Z,21.99
2022-12-27T20:21:31.249Z,23.30
2022-12-27T20:23:58.500Z,22.70
2022-12-27T20:26:25.919Z,22.29
2022-12-27T20:28:53.463Z,22.44
2022-12-27T20:31:21.766Z,22.71
2022-12-27T20:33:52.867Z,22.79
2022-12-27T20:36:20.662Z,21.99
2022-12-27T20:38:47.929Z,22.55
2022-12-27T20:41:16.745Z,22.60
2022-12-27T20:43:44.037Z,22.48
2022-12-27T20:46:12.639Z,22.27
2022-12-27T20:48:41.237Z,22.56
2022-12-27T20:51:13.091Z,22.21
2022-12-27T20:53:40.464Z,21.34
2022-12-27T20:56:09.064Z,22.61
2022-12-27T20:58:36.909Z,22.39
2022-12-27T21:01:08.076Z,22.78
2022-12-27T21:03:36.314Z,22.62
2022-12-27T21:06:08.107Z,22.64
2022-12-27T21:08:40.435Z,22.22
2022-12-27T21:11:16.477Z,22.44
2022-12-27T21:13:44.266Z,22.20
2022-12-27T21:16:16.311Z,22.86
2022-12-27T21:18:43.741Z,22.90
2022-12-27T21:21:17.995Z,22.83
2022-12-27T21:23:47.255Z,22.69
2022-12-27T21:26:19.110Z,22.78
2022-12-27T21:28:46.889Z,21.72
2022-12-27T21:31:15.017Z,22.85
2022-12-27T21:33:42.624Z,22.18
2022-12-27T21:36:14.579Z,22.10
2022-12-27T21:38:42.361Z,22.77
2022-12-27T21:41:14.300Z,21.85
2022-12-27T21:43:42.508Z,22.61
2022-12-27T21:46:13.100Z,22.76
2022-12-27T21:48:40.472Z,22.28
2022-12-27T21:51:09.086Z,22.48
2022-12-27T21:53:36.553Z,21.89
2022-12-27T21:56:04.806Z,22.56
2022-12-27T21:58:32.605Z,22.42
2022-12-27T22:01:08.331Z,22.50
2022-12-27T22:03:37.244Z,22.25
2022-12-27T22:06:15.151Z,22.30
2022-12-27T22:08:43.131Z,22.19
2022-12-27T22:11:13.618Z,22.57
2022-12-27T22:13:41.431Z,22.58
2022-12-27T22:16:12.173Z,22.32
2022-12-27T22:18:43.119Z,22.38
2022-12-27T22:21:12.000Z,22.63
2022-12-27T22:23:41.310Z,22.52
2022-12-27T22:26:12.787Z,22.52
2022-12-27T22:28:40.566Z,22.94
2022-12-27T22:31:08.916Z,22.39
2022-12-27T22:33:36.921Z,22.95
2022-12-27T22:36:05.598Z,22.46
2022-12-27T22:38:33.227Z,22.21
2022-12-27T22:41:11.589Z,22.44
2022-12-27T22:43:39.540Z,22.24
2022-12-27T22:46:07.884Z,22.40
2022-12-27T22:48:35.303Z,22.16
2022-12-27T22:51:10.423Z,22.34
2022-12-27T22:53:37.827Z,21.59
2022-12-27T22:56:05.063Z,22.28
2022-12-27T22:58:32.424Z,22.48
2022-12-27T23:01:00.833Z,21.39
2022-12-27T23:03:28.172Z,22.34
2022-12-27T23:05:56.100Z,22.37
2022-12-27T23:08:23.380Z,22.03
2022-12-27T23:10:50.578Z,22.03
2022-12-27T23:13:22.225Z,22.24
2022-12-27T23:15:56.540Z,22.36
2022-12-27T23:18:24.126Z,22.36
2022-12-27T23:21:20.490Z,22.60
2022-12-27T23:23:38.874Z,21.83
2022-12-27T23:26:07.901Z,22.78
2022-12-27T23:28:36.900Z,22.40
2022-12-27T23:31:05.395Z,22.20
2022-12-27T23:33:32.911Z,22.38
2022-12-27T23:36:00.606Z,22.22
2022-12-27T23:38:28.142Z,22.73
2022-12-27T23:40:56.341Z,22.72
2022-12-27T23:43:51.119Z,22.53
2022-12-27T23:46:15.599Z,22.10
2022-12-27T23:48:43.175Z,22.68
2022-12-27T23:51:11.353Z,22.22
2022-12-27T23:53:38.650Z,22.62
2022-12-27T23:56:08.066Z,22.45
2022-12-27T23:58:38.925Z,22.25
